createdAt,value
2018-11-03T00:00:52.209Z,15.77
2018-11-03T00:03:19.529Z,13.20
2018-11-03T00:05:46.869Z,13.83
2018-11-03T00:08:14.044Z,12.20
2018-11-03T00:10:41.249Z,10.43
2018-11-03T00:13:08.524Z,11.60
2018-11-03T00:15:36.209Z,11.57
2018-11-03T00:18:04.230Z,12.20
2018-11-03T00:20:31.453Z,11.80
2018-11-03T00:22:58.635Z,11.73
2018-11-03T00:25:26.009Z,11.53
2018-11-03T00:27:53.213Z,11.47
2018-11-03T00:30:20.884Z,12.47
2018-11-03T00:32:48.520Z,12.43
2018-11-03T00:35:15.766Z,13.30
2018-11-03T00:37:42.931Z,13.70
2018-11-03T00:40:12.317Z,12.80
2018-11-03T00:42:39.547Z,11.50
2018-11-03T00:45:07.912Z,12.47
2018-11-03T00:47:35.149Z,11.80
2018-11-03T00:50:02.331Z,11.77
2018-11-03T00:52:29.525Z,11.50
2018-11-03T00:54:56.924Z,13.43
2018-11-03T00:57:24.098Z,12.53
2018-11-03T00:59:51.328Z,14.20
2018-11-03T01:02:18.553Z,18.33
2018-11-03T01:04:45.724Z,16.57
2018-11-03T01:07:12.976Z,11.03
2018-11-03T01:09:40.237Z,10.63
2018-11-03T01:12:07.408Z,10.60
2018-11-03T01:14:34.581Z,10.73
2018-11-03T01:17:01.818Z,13.07
2018-11-03T01:19:28.960Z,12.63
2018-11-03T01:21:56.155Z,13.03
2018-11-03T01:24:23.346Z,13.37
2018-11-03T01:26:50.548Z,14.57
2018-11-03T01:29:17.700Z,13.27
2018-11-03T01:31:44.915Z,12.73
2018-11-03T01:34:12.073Z,13.37
2018-11-03T01:36:39.240Z,11.80
2018-11-03T01:39:08.802Z,11.03
2018-11-03T01:41:35.980Z,10.80
2018-11-03T01:44:03.180Z,11.00
2018-11-03T01:46:30.407Z,11.17
2018-11-03T01:48:57.571Z,14.07
2018-11-03T01:51:24.742Z,12.20
2018-11-03T01:53:52.069Z,11.43
2018-11-03T01:56:19.256Z,11.30
2018-11-03T01:58:46.389Z,11.57
2018-11-03T02:01:13.664Z,12.53
2018-11-03T02:03:40.995Z,13.17
2018-11-03T02:06:08.197Z,13.97
2018-11-03T02:08:35.424Z,14.47
2018-11-03T02:11:02.596Z,14.73
2018-11-03T02:13:29.743Z,15.10
2018-11-03T02:15:56.978Z,14.23
2018-11-03T02:18:24.129Z,13.93
2018-11-03T02:20:51.299Z,15.07
2018-11-03T02:23:18.500Z,15.13
2018-11-03T02:25:45.659Z,14.33
2018-11-03T02:28:12.822Z,14.37
2018-11-03T02:30:40.064Z,15.53
2018-11-03T02:33:07.281Z,18.87
2018-11-03T02:35:34.436Z,14.67
2018-11-03T02:38:01.789Z,15.30
2018-11-03T02:40:28.960Z,15.83
2018-11-03T02:42:56.171Z,16.77
2018-11-03T02:45:23.405Z,17.70
2018-11-03T02:47:50.604Z,18.63
2018-11-03T02:50:21.826Z,22.07
2018-11-03T02:52:53.421Z,19.67
2018-11-03T02:55:23.644Z,20.47
2018-11-03T02:57:54.926Z,20.37
2018-11-03T03:00:23.412Z,19.83
2018-11-03T03:02:52.892Z,19.87
2018-11-03T03:05:24.548Z,22.47
2018-11-03T03:07:55.369Z,19.93
2018-11-03T03:10:25.576Z,24.77
2018-11-03T03:12:58.234Z,24.40
2018-11-03T03:15:28.570Z,23.67
2018-11-03T03:17:55.745Z,22.87
2018-11-03T03:20:22.936Z,30.97
2018-11-03T03:22:50.149Z,35.80
2018-11-03T03:25:17.297Z,31.00
2018-11-03T03:27:44.452Z,36.77
2018-11-03T03:30:11.767Z,36.47
2018-11-03T03:32:39.124Z,35.10
2018-11-03T03:35:06.405Z,31.83
2018-11-03T03:37:33.587Z,32.10
2018-11-03T03:40:00.744Z,31.90
2018-11-03T03:42:27.952Z,32.60
2018-11-03T03:44:55.141Z,31.30
2018-11-03T03:47:22.356Z,34.00
2018-11-03T03:49:49.527Z,30.53
2018-11-03T03:52:16.744Z,35.27
2018-11-03T03:54:44.718Z,32.97
2018-11-03T03:57:11.911Z,29.60
2018-11-03T03:59:39.132Z,33.80
2018-11-03T04:02:06.320Z,34.40
2018-11-03T04:04:33.479Z,32.70
2018-11-03T04:07:00.780Z,31.93
2018-11-03T04:09:27.939Z,29.87
2018-11-03T04:11:55.101Z,32.60
2018-11-03T04:14:22.383Z,31.27
2018-11-03T04:16:49.704Z,33.97
2018-11-03T04:19:16.896Z,31.27
2018-11-03T04:21:44.125Z,31.97
2018-11-03T04:24:11.303Z,28.37
2018-11-03T04:26:38.472Z,31.70
2018-11-03T04:29:05.704Z,32.17
2018-11-03T04:31:32.840Z,28.57
2018-11-03T04:34:00.005Z,31.90
2018-11-03T04:36:27.226Z,32.00
2018-11-03T04:38:54.492Z,33.97
2018-11-03T04:41:21.645Z,31.47
2018-11-03T04:43:49.079Z,32.30
2018-11-03T04:46:16.226Z,31.90
2018-11-03T04:48:43.389Z,29.03
2018-11-03T04:51:10.585Z,30.33
2018-11-03T04:53:37.824Z,30.60
2018-11-03T04:56:05.021Z,30.90
2018-11-03T04:58:32.338Z,30.17
2018-11-03T05:00:59.526Z,29.40
2018-11-03T05:03:26.963Z,29.30
2018-11-03T05:05:54.213Z,28.70
2018-11-03T05:08:21.341Z,27.07
2018-11-03T05:10:48.505Z,26.77
2018-11-03T05:13:15.702Z,29.90
2018-11-03T05:15:42.943Z,27.43
2018-11-03T05:18:10.068Z,29.37
2018-11-03T05:20:37.506Z,28.77
2018-11-03T05:23:04.701Z,29.23
2018-11-03T05:25:31.886Z,28.50
2018-11-03T05:27:59.161Z,29.37
2018-11-03T05:30:26.353Z,32.03
2018-11-03T05:32:53.607Z,31.77
2018-11-03T05:35:20.832Z,35.40
2018-11-03T05:37:47.964Z,33.03
2018-11-03T05:40:15.118Z,32.17
2018-11-03T05:42:42.404Z,29.80
2018-11-03T05:45:09.578Z,29.50
2018-11-03T05:47:36.740Z,30.27
2018-11-03T05:50:05.028Z,33.43
2018-11-03T05:52:32.214Z,30.63
2018-11-03T05:54:59.340Z,31.93
2018-11-03T05:57:26.568Z,30.33
2018-11-03T05:59:53.737Z,32.23
2018-11-03T06:02:20.910Z,30.03
2018-11-03T06:04:48.210Z,34.10
2018-11-03T06:07:15.342Z,29.47
2018-11-03T06:09:42.485Z,32.07
2018-11-03T06:12:09.676Z,34.20
2018-11-03T06:14:36.832Z,36.17
2018-11-03T06:17:04.074Z,30.87
2018-11-03T06:19:31.281Z,32.20
2018-11-03T06:21:58.439Z,30.87
2018-11-03T06:24:25.601Z,30.27
2018-11-03T06:26:52.885Z,30.57
2018-11-03T06:29:20.119Z,30.40
2018-11-03T06:31:47.288Z,31.20
2018-11-03T06:34:14.541Z,30.23
2018-11-03T06:36:41.688Z,34.13
2018-11-03T06:39:09.046Z,30.70
2018-11-03T06:41:36.336Z,33.17
2018-11-03T06:44:03.553Z,36.53
2018-11-03T06:46:30.760Z,32.50
2018-11-03T06:49:03.704Z,35.13
2018-11-03T06:51:31.248Z,33.17
2018-11-03T06:53:58.921Z,34.90
2018-11-03T06:56:26.108Z,31.10
2018-11-03T06:58:53.253Z,33.10
2018-11-03T07:01:20.418Z,31.50
2018-11-03T07:03:47.789Z,32.40
2018-11-03T07:06:14.955Z,36.03
2018-11-03T07:08:42.123Z,34.97
2018-11-03T07:11:09.321Z,36.27
2018-11-03T07:13:37.549Z,32.73
2018-11-03T07:16:05.335Z,33.93
2018-11-03T07:18:32.515Z,32.83
2018-11-03T07:20:59.656Z,32.40
2018-11-03T07:23:26.853Z,31.97
2018-11-03T07:25:54.062Z,29.07
2018-11-03T07:28:21.212Z,31.37
2018-11-03T07:30:48.484Z,29.97
2018-11-03T07:33:15.668Z,33.40
2018-11-03T07:35:42.821Z,31.80
2018-11-03T07:38:10.041Z,31.07
2018-11-03T07:40:37.298Z,31.10
2018-11-03T07:43:04.557Z,33.00
2018-11-03T07:45:31.709Z,30.27
2018-11-03T07:47:58.932Z,30.80
2018-11-03T07:50:26.076Z,30.23
2018-11-03T07:52:53.252Z,32.13
2018-11-03T07:55:20.601Z,31.47
2018-11-03T07:57:47.761Z,29.97
2018-11-03T08:00:14.941Z,32.77
2018-11-03T08:02:42.148Z,29.90
2018-11-03T08:05:10.740Z,32.47
2018-11-03T08:07:37.981Z,28.17
2018-11-03T08:10:06.113Z,31.07
2018-11-03T08:12:33.237Z,31.03
2018-11-03T08:15:00.366Z,29.87
2018-11-03T08:17:29.620Z,31.53
2018-11-03T08:19:56.800Z,31.07
2018-11-03T08:22:23.938Z,30.03
2018-11-03T08:24:51.232Z,28.83
2018-11-03T08:27:18.391Z,30.40
2018-11-03T08:29:45.604Z,31.83
2018-11-03T08:32:12.821Z,29.70
2018-11-03T08:34:39.981Z,31.53
2018-11-03T08:37:07.115Z,29.40
2018-11-03T08:39:34.295Z,33.03
2018-11-03T08:42:01.429Z,31.43
2018-11-03T08:44:28.565Z,31.87
2018-11-03T08:46:55.748Z,28.03
2018-11-03T08:49:22.879Z,30.77
2018-11-03T08:51:51.069Z,28.77
2018-11-03T08:54:18.273Z,28.53
2018-11-03T08:56:45.456Z,27.83
2018-11-03T08:59:12.613Z,31.87
2018-11-03T09:01:39.804Z,29.23
2018-11-03T09:04:06.936Z,30.73
2018-11-03T09:06:34.090Z,27.87
2018-11-03T09:09:01.281Z,26.57
2018-11-03T09:11:28.420Z,28.87
2018-11-03T09:13:55.551Z,30.53
2018-11-03T09:16:22.749Z,31.23
2018-11-03T09:18:49.901Z,30.23
2018-11-03T09:21:17.046Z,31.80
2018-11-03T09:23:44.233Z,31.77
2018-11-03T09:26:11.353Z,31.97
2018-11-03T09:28:38.506Z,30.63
2018-11-03T09:31:05.742Z,32.33
2018-11-03T09:33:32.885Z,30.57
2018-11-03T09:36:00.003Z,27.13
2018-11-03T09:38:27.179Z,30.60
2018-11-03T09:40:54.322Z,30.43
2018-11-03T09:43:21.505Z,29.17
2018-11-03T09:45:48.706Z,31.33
2018-11-03T09:48:15.832Z,31.43
2018-11-03T09:50:43.166Z,30.00
2018-11-03T09:53:10.170Z,28.23
2018-11-03T09:55:37.315Z,28.93
2018-11-03T09:58:04.588Z,30.60
2018-11-03T10:00:31.785Z,30.13
2018-11-03T10:02:58.953Z,28.50
2018-11-03T10:05:26.075Z,27.83
2018-11-03T10:07:53.268Z,33.10
2018-11-03T10:10:20.511Z,27.73
2018-11-03T10:12:47.650Z,29.40
2018-11-03T10:15:16.185Z,33.40
2018-11-03T10:17:43.881Z,31.03
2018-11-03T10:20:11.032Z,29.93
2018-11-03T10:22:38.480Z,31.27
2018-11-03T10:25:17.285Z,28.17
2018-11-03T10:27:44.915Z,31.07
2018-11-03T10:30:13.046Z,29.40
2018-11-03T10:32:40.722Z,32.40
2018-11-03T10:35:08.720Z,29.23
2018-11-03T10:37:36.141Z,29.67
2018-11-03T10:40:03.777Z,30.27
2018-11-03T10:42:30.999Z,29.00
2018-11-03T10:44:58.144Z,30.53
2018-11-03T10:47:25.302Z,28.03
2018-11-03T10:49:52.533Z,28.67
2018-11-03T10:52:19.739Z,31.97
2018-11-03T10:54:46.955Z,27.60
2018-11-03T10:57:14.148Z,23.17
2018-11-03T10:59:41.285Z,24.53
2018-11-03T11:02:14.254Z,24.70
2018-11-03T11:04:47.165Z,26.50
2018-11-03T11:07:20.017Z,25.70
2018-11-03T11:10:55.406Z,23.97
2018-11-03T11:13:24.339Z,25.63
2018-11-03T11:15:52.886Z,25.03
2018-11-03T11:18:20.050Z,25.07
2018-11-03T11:20:47.217Z,26.17
2018-11-03T11:23:14.403Z,22.73
2018-11-03T11:25:41.517Z,25.07
2018-11-03T11:28:08.791Z,25.30
2018-11-03T11:30:37.262Z,26.67
2018-11-03T11:33:06.028Z,24.43
2018-11-03T11:35:33.267Z,24.63
2018-11-03T11:38:00.504Z,21.40
2018-11-03T11:40:27.635Z,22.63
2018-11-03T11:42:54.866Z,23.63
2018-11-03T11:45:22.016Z,23.73
2018-11-03T11:47:49.187Z,23.83
2018-11-03T11:50:16.414Z,21.50
2018-11-03T11:52:43.576Z,22.57
2018-11-03T11:55:10.745Z,23.60
2018-11-03T11:57:37.957Z,24.87
2018-11-03T12:00:05.310Z,21.90
2018-11-03T12:02:32.550Z,22.27
2018-11-03T12:04:59.689Z,25.63
2018-11-03T12:07:26.841Z,22.93
2018-11-03T12:09:54.104Z,17.67
2018-11-03T12:12:21.262Z,15.83
2018-11-03T12:14:48.561Z,17.37
2018-11-03T12:17:15.688Z,18.87
2018-11-03T12:19:42.903Z,21.13
2018-11-03T12:22:10.054Z,20.23
2018-11-03T12:24:37.230Z,17.57
2018-11-03T12:27:04.629Z,19.57
2018-11-03T12:29:31.807Z,18.57
2018-11-03T12:31:58.976Z,15.63
2018-11-03T12:34:26.212Z,16.03
2018-11-03T12:36:53.373Z,15.17
2018-11-03T12:39:20.614Z,16.80
2018-11-03T12:41:47.838Z,14.40
2018-11-03T12:44:14.986Z,11.27
2018-11-03T12:46:42.136Z,15.80
2018-11-03T12:49:09.374Z,17.80
2018-11-03T12:51:36.547Z,14.43
2018-11-03T12:54:03.779Z,15.97
2018-11-03T12:56:31.029Z,15.00
2018-11-03T12:58:58.179Z,12.70
2018-11-03T13:01:25.385Z,16.53
2018-11-03T13:03:52.548Z,13.70
2018-11-03T13:06:19.763Z,11.43
2018-11-03T13:08:46.914Z,13.57
2018-11-03T13:11:14.129Z,12.97
2018-11-03T13:13:41.279Z,13.83
2018-11-03T13:16:08.433Z,15.93
2018-11-03T13:18:35.630Z,11.27
2018-11-03T13:21:02.789Z,13.50
2018-11-03T13:23:30.093Z,12.27
2018-11-03T13:25:57.301Z,12.27
2018-11-03T13:28:24.458Z,9.73
2018-11-03T13:30:51.604Z,12.43
2018-11-03T13:33:18.798Z,14.33
2018-11-03T13:35:45.961Z,13.43
2018-11-03T13:38:13.216Z,11.97
2018-11-03T13:40:40.510Z,12.70
2018-11-03T13:43:07.656Z,12.17
2018-11-03T13:45:34.810Z,10.57
2018-11-03T13:48:02.041Z,12.00
2018-11-03T13:50:29.214Z,9.80
2018-11-03T13:52:56.449Z,12.23
2018-11-03T13:55:23.663Z,13.10
2018-11-03T13:57:50.801Z,13.40
2018-11-03T14:00:18.612Z,12.70
2018-11-03T14:02:46.726Z,15.90
2018-11-03T14:05:13.952Z,16.30
2018-11-03T14:07:41.129Z,10.30
2018-11-03T14:10:10.764Z,11.43
2018-11-03T14:12:37.899Z,12.87
2018-11-03T14:15:05.897Z,11.50
2018-11-03T14:17:33.109Z,15.93
2018-11-03T14:20:00.279Z,13.73
2018-11-03T14:22:27.422Z,18.10
2018-11-03T14:24:54.637Z,12.20
2018-11-03T14:27:21.788Z,12.80
2018-11-03T14:29:48.925Z,10.50
2018-11-03T14:32:16.143Z,10.53
2018-11-03T14:34:43.292Z,13.93
2018-11-03T14:37:10.451Z,12.43
2018-11-03T14:39:37.723Z,14.90
2018-11-03T14:42:05.065Z,13.80
2018-11-03T14:44:32.240Z,11.53
2018-11-03T14:46:59.458Z,12.10
2018-11-03T14:49:26.604Z,13.17
2018-11-03T14:51:53.745Z,10.03
2018-11-03T14:54:20.973Z,11.10
2018-11-03T14:56:48.251Z,11.47
2018-11-03T14:59:15.345Z,13.83
2018-11-03T15:01:42.541Z,12.10
2018-11-03T15:04:09.777Z,14.20
2018-11-03T15:06:37.024Z,11.73
2018-11-03T15:09:05.928Z,10.97
2018-11-03T15:11:33.104Z,14.10
2018-11-03T15:14:00.373Z,10.13
2018-11-03T15:16:28.317Z,10.60
2018-11-03T15:18:55.493Z,8.73
2018-11-03T15:21:22.637Z,12.60
2018-11-03T15:23:49.838Z,10.53
2018-11-03T15:26:16.969Z,9.63
2018-11-03T15:28:44.124Z,12.57
2018-11-03T15:31:11.393Z,9.37
2018-11-03T15:33:38.687Z,12.90
2018-11-03T15:36:05.860Z,12.27
2018-11-03T15:38:33.060Z,9.60
2018-11-03T15:41:00.199Z,10.23
2018-11-03T15:43:27.362Z,11.10
2018-11-03T15:45:54.532Z,12.00
2018-11-03T15:48:21.693Z,11.37
2018-11-03T15:50:50.173Z,10.37
2018-11-03T15:53:17.427Z,14.47
2018-11-03T15:55:44.574Z,13.20
2018-11-03T15:58:11.708Z,11.90
2018-11-03T16:00:38.904Z,14.07
2018-11-03T16:03:06.094Z,10.83
2018-11-03T16:05:33.234Z,8.57
2018-11-03T16:08:00.525Z,12.50
2018-11-03T16:10:27.664Z,15.43
2018-11-03T16:12:54.836Z,12.13
2018-11-03T16:15:22.021Z,14.03
2018-11-03T16:17:49.147Z,14.23
2018-11-03T16:20:16.398Z,16.10
2018-11-03T16:22:43.875Z,13.20
2018-11-03T16:25:10.976Z,15.03
2018-11-03T16:27:38.831Z,16.40
2018-11-03T16:30:08.389Z,17.67
2018-11-03T16:32:35.716Z,17.27
2018-11-03T16:35:02.719Z,14.90
2018-11-03T16:37:29.995Z,12.83
2018-11-03T16:39:57.144Z,13.90
2018-11-03T16:42:24.279Z,13.57
2018-11-03T16:44:51.535Z,15.50
2018-11-03T16:47:18.684Z,17.33
2018-11-03T16:49:45.828Z,16.60
2018-11-03T16:52:13.022Z,17.73
2018-11-03T16:54:40.420Z,16.50
2018-11-03T16:57:07.594Z,15.13
2018-11-03T16:59:35.206Z,17.20
2018-11-03T17:02:02.808Z,15.50
2018-11-03T17:04:30.026Z,18.43
2018-11-03T17:06:57.683Z,14.80
2018-11-03T17:09:25.664Z,16.03
2018-11-03T17:11:53.524Z,18.77
2018-11-03T17:14:21.257Z,22.50
2018-11-03T17:16:49.111Z,22.50
2018-11-03T17:19:16.725Z,26.00
2018-11-03T17:21:44.774Z,23.20
2018-11-03T17:24:12.423Z,24.20
2018-11-03T17:26:41.873Z,28.23
2018-11-03T17:29:09.769Z,26.63
2018-11-03T17:31:37.671Z,24.87
2018-11-03T17:34:05.731Z,22.97
2018-11-03T17:36:33.748Z,28.33
2018-11-03T17:39:01.585Z,24.30
2018-11-03T17:41:30.253Z,28.03
2018-11-03T17:43:58.383Z,31.47
2018-11-03T17:46:25.549Z,24.17
2018-11-03T17:48:52.864Z,24.20
2018-11-03T17:51:20.354Z,27.40
2018-11-03T17:53:47.495Z,24.67
2018-11-03T17:56:15.128Z,25.37
2018-11-03T17:58:42.621Z,22.43
2018-11-03T18:01:10.181Z,20.83
2018-11-03T18:03:37.712Z,18.47
2018-11-03T18:06:05.536Z,18.53
2018-11-03T18:08:33.213Z,27.10
2018-11-03T18:11:01.018Z,22.73
2018-11-03T18:13:28.863Z,20.80
2018-11-03T18:15:56.056Z,19.67
2018-11-03T18:18:23.209Z,24.23
2018-11-03T18:20:50.460Z,18.80
2018-11-03T18:23:17.766Z,22.63
2018-11-03T18:25:44.899Z,20.93
2018-11-03T18:28:12.140Z,21.47
2018-11-03T18:30:39.337Z,19.40
2018-11-03T18:33:06.523Z,19.77
2018-11-03T18:35:33.864Z,25.07
2018-11-03T18:38:01.065Z,20.37
2018-11-03T18:40:28.165Z,20.23
2018-11-03T18:42:55.457Z,26.17
2018-11-03T18:45:22.588Z,23.60
2018-11-03T18:47:49.839Z,24.13
2018-11-03T18:50:17.086Z,25.83
2018-11-03T18:52:44.276Z,25.13
2018-11-03T18:55:12.322Z,24.73
2018-11-03T18:57:40.548Z,27.07
2018-11-03T19:00:08.785Z,24.80
2018-11-03T19:02:46.285Z,21.67
2018-11-03T19:05:13.437Z,24.20
2018-11-03T19:07:40.594Z,23.07
2018-11-03T19:10:08.307Z,22.57
2018-11-03T19:12:35.473Z,22.00
2018-11-03T19:15:02.676Z,22.97
2018-11-03T19:17:29.917Z,22.13
2018-11-03T19:19:57.037Z,23.77
2018-11-03T19:22:24.185Z,25.67
2018-11-03T19:24:51.459Z,22.33
2018-11-03T19:27:18.595Z,22.60
2018-11-03T19:29:45.898Z,23.40
2018-11-03T19:32:13.059Z,21.17
2018-11-03T19:34:40.165Z,26.90
2018-11-03T19:37:07.309Z,32.80
2018-11-03T19:39:34.583Z,31.30
2018-11-03T19:42:01.806Z,27.87
2018-11-03T19:44:28.977Z,26.93
2018-11-03T19:46:56.253Z,27.43
2018-11-03T19:49:23.397Z,30.17
2018-11-03T19:51:50.876Z,27.67
2018-11-03T19:54:18.037Z,30.53
2018-11-03T19:56:45.262Z,30.80
2018-11-03T19:59:12.417Z,37.70
2018-11-03T20:01:39.615Z,26.70
2018-11-03T20:04:06.853Z,28.83
2018-11-03T20:06:34.042Z,29.80
2018-11-03T20:09:01.324Z,31.47
2018-11-03T20:11:28.564Z,30.47
2018-11-03T20:13:55.887Z,31.23
2018-11-03T20:16:23.316Z,31.30
2018-11-03T20:18:50.528Z,31.80
2018-11-03T20:21:17.863Z,31.37
2018-11-03T20:23:45.205Z,32.30
2018-11-03T20:26:12.460Z,29.77
2018-11-03T20:28:39.624Z,29.17
2018-11-03T20:31:06.865Z,30.00
2018-11-03T20:33:34.024Z,31.83
2018-11-03T20:36:01.198Z,31.57
2018-11-03T20:38:28.380Z,27.77
2018-11-03T20:40:55.542Z,28.33
2018-11-03T20:43:22.676Z,32.10
2018-11-03T20:45:49.908Z,33.47
2018-11-03T20:48:17.057Z,35.83
2018-11-03T20:50:44.272Z,26.03
2018-11-03T20:53:11.513Z,31.53
2018-11-03T20:55:38.647Z,32.80
2018-11-03T20:58:05.828Z,35.17
2018-11-03T21:00:33.076Z,32.50
2018-11-03T21:03:00.228Z,29.93
2018-11-03T21:05:27.403Z,31.93
2018-11-03T21:07:54.754Z,32.73
2018-11-03T21:10:21.880Z,33.47
2018-11-03T21:12:49.046Z,36.27
2018-11-03T21:15:16.276Z,32.00
2018-11-03T21:17:43.432Z,30.10
2018-11-03T21:20:10.601Z,29.10
2018-11-03T21:22:37.825Z,28.30
2018-11-03T21:25:05.017Z,31.13
2018-11-03T21:27:32.240Z,29.70
2018-11-03T21:29:59.502Z,27.43
2018-11-03T21:32:26.742Z,27.40
2018-11-03T21:34:53.834Z,31.50
2018-11-03T21:37:21.087Z,30.20
2018-11-03T21:39:48.258Z,32.30
2018-11-03T21:42:15.421Z,28.50
2018-11-03T21:44:42.628Z,49.00
2018-11-03T21:47:09.855Z,30.53
2018-11-03T21:49:37.016Z,30.73
2018-11-03T21:52:04.637Z,27.67
2018-11-03T21:54:31.796Z,30.87
2018-11-03T21:56:58.982Z,31.97
2018-11-03T21:59:26.264Z,33.07
2018-11-03T22:01:53.428Z,31.90
2018-11-03T22:04:20.572Z,30.40
2018-11-03T22:06:47.777Z,26.57
2018-11-03T22:09:14.935Z,28.30
2018-11-03T22:11:42.097Z,34.33
2018-11-03T22:14:09.364Z,33.53
2018-11-03T22:16:36.526Z,35.90
2018-11-03T22:19:03.720Z,32.60
2018-11-03T22:21:31.256Z,34.33
2018-11-03T22:23:58.592Z,30.90
2018-11-03T22:26:25.806Z,33.40
2018-11-03T22:28:53.213Z,33.13
2018-11-03T22:31:20.366Z,34.03
2018-11-03T22:33:47.526Z,31.30
2018-11-03T22:36:14.739Z,30.03
2018-11-03T22:38:41.929Z,30.53
2018-11-03T22:41:09.160Z,31.73
2018-11-03T22:43:36.381Z,35.33
2018-11-03T22:46:03.806Z,30.07
2018-11-03T22:48:30.944Z,27.03
2018-11-03T22:50:58.145Z,31.60
2018-11-03T22:53:25.407Z,27.73
2018-11-03T22:55:52.572Z,30.60
2018-11-03T22:58:19.793Z,29.30
2018-11-03T23:00:52.638Z,25.10
2018-11-03T23:03:19.856Z,29.07
2018-11-03T23:05:47.036Z,28.73
2018-11-03T23:08:14.188Z,32.40
2018-11-03T23:10:41.419Z,27.57
2018-11-03T23:13:08.712Z,27.10
2018-11-03T23:15:35.841Z,31.20
2018-11-03T23:18:03.170Z,28.20
2018-11-03T23:20:31.061Z,29.10
2018-11-03T23:22:58.228Z,26.20
2018-11-03T23:25:25.794Z,27.10
2018-11-03T23:27:53.077Z,29.93
2018-11-03T23:30:20.368Z,31.17
2018-11-03T23:32:47.738Z,31.00
2018-11-03T23:35:14.964Z,25.30
2018-11-03T23:37:43.032Z,34.83
2018-11-03T23:40:10.804Z,32.90
2018-11-03T23:42:37.971Z,34.33
2018-11-03T23:45:06.001Z,31.37
2018-11-03T23:47:33.200Z,29.73
2018-11-03T23:50:00.352Z,32.67
2018-11-03T23:52:33.064Z,30.97
2018-11-03T23:55:01.085Z,32.40
2018-11-03T23:57:28.667Z,33.57
2018-11-03T23:59:55.930Z,33.23
